createdAt,value
2018-10-09T00:02:01.751Z,73.52
2018-10-09T00:04:31.079Z,74.04
2018-10-09T00:07:00.278Z,73.01
2018-10-09T00:09:29.482Z,74.05
2018-10-09T00:11:58.728Z,74.20
2018-10-09T00:14:27.931Z,74.04
2018-10-09T00:16:56.959Z,73.26
2018-10-09T00:19:26.164Z,73.04
2018-10-09T00:21:55.356Z,72.89
2018-10-09T00:24:24.330Z,73.49
2018-10-09T00:26:53.295Z,74.29
2018-10-09T00:29:22.631Z,74.37
2018-10-09T00:31:51.952Z,73.68
2018-10-09T00:34:21.396Z,73.89
2018-10-09T00:36:50.572Z,73.94
2018-10-09T00:39:19.677Z,73.48
2018-10-09T00:41:49.035Z,74.04
2018-10-09T00:44:17.995Z,74.40
2018-10-09T00:46:47.338Z,74.87
2018-10-09T00:49:16.397Z,74.78
2018-10-09T00:51:45.603Z,74.31
2018-10-09T00:54:14.839Z,73.30
2018-10-09T00:56:43.753Z,73.88
2018-10-09T00:59:13.143Z,74.53
2018-10-09T01:01:42.147Z,75.07
2018-10-09T01:04:11.240Z,74.64
2018-10-09T01:06:40.628Z,75.23
2018-10-09T01:09:10.162Z,75.13
2018-10-09T01:11:39.435Z,75.53
2018-10-09T01:14:08.899Z,75.57
2018-10-09T01:16:38.257Z,75.62
2018-10-09T01:19:07.626Z,76.39
2018-10-09T01:21:37.043Z,75.04
2018-10-09T01:24:06.011Z,75.74
2018-10-09T01:26:35.212Z,75.89
2018-10-09T01:29:04.486Z,76.25
2018-10-09T01:31:33.699Z,75.62
2018-10-09T01:34:02.884Z,76.11
2018-10-09T01:36:32.082Z,75.86
2018-10-09T01:39:01.070Z,76.31
2018-10-09T01:41:30.017Z,76.49
2018-10-09T01:43:59.216Z,75.79
2018-10-09T01:46:28.458Z,75.75
2018-10-09T01:48:57.962Z,76.59
2018-10-09T01:51:27.416Z,76.32
2018-10-09T01:53:56.351Z,76.29
2018-10-09T01:56:25.164Z,76.84
2018-10-09T01:58:54.065Z,76.62
2018-10-09T02:01:23.327Z,76.37
2018-10-09T02:03:52.684Z,76.45
2018-10-09T02:06:21.728Z,76.70
2018-10-09T02:08:50.718Z,76.69
2018-10-09T02:11:19.914Z,76.96
2018-10-09T02:13:49.068Z,77.10
2018-10-09T02:16:18.234Z,77.49
2018-10-09T02:18:47.621Z,77.45
2018-10-09T02:21:16.927Z,78.28
2018-10-09T02:23:46.207Z,78.21
2018-10-09T02:26:15.561Z,78.66
2018-10-09T02:28:44.857Z,78.23
2018-10-09T02:31:14.035Z,78.00
2018-10-09T02:33:43.318Z,77.65
2018-10-09T02:36:12.410Z,76.83
2018-10-09T02:38:41.843Z,76.87
2018-10-09T02:41:11.202Z,76.23
2018-10-09T02:43:40.615Z,76.05
2018-10-09T02:46:09.896Z,76.03
2018-10-09T02:48:39.323Z,75.37
2018-10-09T02:51:08.251Z,75.74
2018-10-09T02:53:37.122Z,74.90
2018-10-09T02:56:06.306Z,75.60
2018-10-09T02:58:35.460Z,75.10
2018-10-09T03:01:04.828Z,75.12
2018-10-09T03:03:33.782Z,75.88
2018-10-09T03:06:02.856Z,75.19
2018-10-09T03:08:32.228Z,74.89
2018-10-09T03:11:01.459Z,74.36
2018-10-09T03:13:30.482Z,75.11
2018-10-09T03:15:59.811Z,75.58
2018-10-09T03:18:29.096Z,75.09
2018-10-09T03:20:58.510Z,76.03
2018-10-09T03:23:27.747Z,75.53
2018-10-09T03:25:56.986Z,75.61
2018-10-09T03:28:26.340Z,75.92
2018-10-09T03:30:55.339Z,76.11
2018-10-09T03:33:24.439Z,76.04
2018-10-09T03:35:53.674Z,75.52
2018-10-09T03:38:22.914Z,75.93
2018-10-09T03:40:52.323Z,75.94
2018-10-09T03:43:21.662Z,76.25
2018-10-09T03:45:50.781Z,75.94
2018-10-09T03:48:19.697Z,76.31
2018-10-09T03:50:48.955Z,76.10
2018-10-09T03:53:18.258Z,76.02
2018-10-09T03:55:47.773Z,75.84
2018-10-09T03:58:16.950Z,76.21
2018-10-09T04:00:46.251Z,76.40
2018-10-09T04:03:15.651Z,76.22
2018-10-09T04:05:44.989Z,76.77
2018-10-09T04:08:14.166Z,77.23
2018-10-09T04:10:43.471Z,77.85
2018-10-09T04:13:12.865Z,76.99
2018-10-09T04:15:42.130Z,77.10
2018-10-09T04:18:11.460Z,77.78
2018-10-09T04:20:40.851Z,78.04
2018-10-09T04:23:10.194Z,77.90
2018-10-09T04:25:39.563Z,77.95
2018-10-09T04:28:08.819Z,78.48
2018-10-09T04:30:37.803Z,78.23
2018-10-09T04:33:07.107Z,78.42
2018-10-09T04:35:36.471Z,78.85
2018-10-09T04:38:05.666Z,78.72
2018-10-09T04:40:34.946Z,78.45
2018-10-09T04:43:04.206Z,78.28
2018-10-09T04:45:33.471Z,78.05
2018-10-09T04:48:02.468Z,77.66
2018-10-09T04:50:31.939Z,77.09
2018-10-09T04:53:01.161Z,77.63
2018-10-09T04:55:30.535Z,77.90
2018-10-09T04:57:59.743Z,77.92
2018-10-09T05:00:28.909Z,78.19
2018-10-09T05:02:58.142Z,79.03
2018-10-09T05:05:27.375Z,78.68
2018-10-09T05:07:56.294Z,79.64
2018-10-09T05:10:25.511Z,79.19
2018-10-09T05:12:54.925Z,78.81
2018-10-09T05:15:24.167Z,79.25
2018-10-09T05:17:53.707Z,78.89
2018-10-09T05:20:23.035Z,78.59
2018-10-09T05:22:52.348Z,79.11
2018-10-09T05:25:21.734Z,79.27
2018-10-09T05:27:50.623Z,78.87
2018-10-09T05:30:19.727Z,79.24
2018-10-09T05:32:49.116Z,79.45
2018-10-09T05:35:18.452Z,78.80
2018-10-09T05:37:47.898Z,79.41
2018-10-09T05:40:16.840Z,79.52
2018-10-09T05:42:45.771Z,79.06
2018-10-09T05:45:14.651Z,79.33
2018-10-09T05:47:43.787Z,78.79
2018-10-09T05:50:13.135Z,79.04
2018-10-09T05:52:42.312Z,78.24
2018-10-09T05:55:11.576Z,78.33
2018-10-09T05:57:40.883Z,78.16
2018-10-09T06:00:10.614Z,77.89
2018-10-09T06:02:39.808Z,77.87
2018-10-09T06:05:09.126Z,77.06
2018-10-09T06:07:38.593Z,75.92
2018-10-09T06:10:09.131Z,74.56
2018-10-09T06:12:38.420Z,74.10
2018-10-09T06:15:07.388Z,72.77
2018-10-09T06:17:36.451Z,73.09
2018-10-09T06:20:05.574Z,72.57
2018-10-09T06:22:34.808Z,72.43
2018-10-09T06:25:04.191Z,71.90
2018-10-09T06:27:33.111Z,71.63
2018-10-09T06:30:02.555Z,71.37
2018-10-09T06:32:31.433Z,70.39
2018-10-09T06:35:00.682Z,70.27
2018-10-09T06:37:29.867Z,70.14
2018-10-09T06:39:58.870Z,70.78
2018-10-09T06:42:28.147Z,69.89
2018-10-09T06:44:57.147Z,69.76
2018-10-09T06:47:26.216Z,69.58
2018-10-09T06:49:55.679Z,68.90
2018-10-09T06:52:25.011Z,69.30
2018-10-09T06:54:54.428Z,68.79
2018-10-09T06:57:23.359Z,68.37
2018-10-09T06:59:52.748Z,69.28
2018-10-09T07:02:21.859Z,68.84
2018-10-09T07:04:51.196Z,68.67
2018-10-09T07:07:20.552Z,68.29
2018-10-09T07:09:49.995Z,67.75
2018-10-09T07:12:19.282Z,68.23
2018-10-09T07:14:48.460Z,67.55
2018-10-09T07:17:17.690Z,67.95
2018-10-09T07:19:47.001Z,67.09
2018-10-09T07:22:16.191Z,66.68
2018-10-09T07:24:45.336Z,66.20
2018-10-09T07:27:14.326Z,65.73
2018-10-09T07:29:43.628Z,65.66
2018-10-09T07:32:12.628Z,64.78
2018-10-09T07:34:41.660Z,64.90
2018-10-09T07:37:10.842Z,63.88
2018-10-09T07:39:40.002Z,64.54
2018-10-09T07:42:09.258Z,65.08
2018-10-09T07:44:38.393Z,64.29
2018-10-09T07:47:07.752Z,63.69
2018-10-09T07:49:37.098Z,63.79
2018-10-09T07:52:06.449Z,64.27
2018-10-09T07:54:35.684Z,63.62
2018-10-09T07:57:04.964Z,63.70
2018-10-09T07:59:34.150Z,63.38
2018-10-09T08:02:03.191Z,63.35
2018-10-09T08:04:32.216Z,63.29
2018-10-09T08:07:01.268Z,63.29
2018-10-09T08:09:30.580Z,63.29
2018-10-09T08:11:59.871Z,63.02
2018-10-09T08:14:29.308Z,63.17
2018-10-09T08:16:58.369Z,62.04
2018-10-09T08:19:27.608Z,62.37
2018-10-09T08:21:56.712Z,62.18
2018-10-09T08:24:25.923Z,62.45
2018-10-09T08:26:55.252Z,61.84
2018-10-09T08:29:24.612Z,61.71
2018-10-09T08:31:53.860Z,59.92
2018-10-09T08:34:23.115Z,60.17
2018-10-09T08:36:52.068Z,60.82
2018-10-09T08:39:21.032Z,60.92
2018-10-09T08:41:50.385Z,58.95
2018-10-09T08:44:19.797Z,59.79
2018-10-09T08:46:49.255Z,58.94
2018-10-09T08:49:18.587Z,58.83
2018-10-09T08:51:48.100Z,56.55
2018-10-09T08:54:17.370Z,55.70
2018-10-09T08:56:46.668Z,56.34
2018-10-09T08:59:15.804Z,55.72
2018-10-09T09:01:44.688Z,54.49
2018-10-09T09:04:13.606Z,54.87
2018-10-09T09:06:42.737Z,53.85
2018-10-09T09:09:12.478Z,52.73
2018-10-09T09:11:41.662Z,54.38
2018-10-09T09:14:10.708Z,54.31
2018-10-09T09:16:40.016Z,52.64
2018-10-09T09:19:09.213Z,52.65
2018-10-09T09:21:38.039Z,51.74
2018-10-09T09:24:07.223Z,49.37
2018-10-09T09:26:36.527Z,48.89
2018-10-09T09:29:05.942Z,49.86
2018-10-09T09:31:35.141Z,48.81
2018-10-09T09:34:04.095Z,49.88
2018-10-09T09:36:33.076Z,49.02
2018-10-09T09:39:02.008Z,46.71
2018-10-09T09:41:30.908Z,47.31
2018-10-09T09:43:59.775Z,47.56
2018-10-09T09:46:28.791Z,44.85
2018-10-09T09:48:57.763Z,43.74
2018-10-09T09:51:26.784Z,44.83
2018-10-09T09:53:55.712Z,44.70
2018-10-09T09:56:24.635Z,44.35
2018-10-09T09:58:53.671Z,42.91
2018-10-09T10:01:26.559Z,41.98
2018-10-09T10:03:55.483Z,41.73
2018-10-09T10:06:24.429Z,39.58
2018-10-09T10:08:53.355Z,36.38
2018-10-09T10:11:22.328Z,35.78
2018-10-09T10:13:51.310Z,32.62
2018-10-09T10:16:20.745Z,32.07
2018-10-09T10:18:49.629Z,30.22
2018-10-09T10:21:19.143Z,28.94
2018-10-09T10:23:48.064Z,26.77
2018-10-09T10:26:17.047Z,26.63
2018-10-09T10:28:46.004Z,24.56
2018-10-09T10:31:14.941Z,26.07
2018-10-09T10:33:44.142Z,24.15
2018-10-09T10:36:13.171Z,24.38
2018-10-09T10:38:42.181Z,24.92
2018-10-09T10:41:11.131Z,23.55
2018-10-09T10:43:39.999Z,22.19
2018-10-09T10:46:09.771Z,21.33
2018-10-09T10:48:48.462Z,21.00
2018-10-09T10:51:17.387Z,20.86
2018-10-09T10:53:46.440Z,20.70
2018-10-09T10:56:15.324Z,19.88
2018-10-09T10:58:44.398Z,19.86
2018-10-09T11:01:13.359Z,19.98
2018-10-09T11:03:42.391Z,19.56
2018-10-09T11:06:11.226Z,19.53
2018-10-09T11:08:40.244Z,18.67
2018-10-09T11:11:09.201Z,18.25
2018-10-09T11:13:38.119Z,18.65
2018-10-09T11:16:07.700Z,17.74
2018-10-09T11:18:36.728Z,17.67
2018-10-09T11:21:05.801Z,17.65
2018-10-09T11:23:34.932Z,16.45
2018-10-09T11:26:03.982Z,16.42
2018-10-09T11:28:33.018Z,15.93
2018-10-09T11:31:02.023Z,14.85
2018-10-09T11:33:31.035Z,14.14
2018-10-09T11:35:59.965Z,13.19
2018-10-09T11:38:28.855Z,12.90
2018-10-09T11:40:57.844Z,12.80
2018-10-09T11:43:26.856Z,12.61
2018-10-09T11:45:56.723Z,12.04
2018-10-09T11:48:25.605Z,11.37
2018-10-09T11:50:54.471Z,11.82
2018-10-09T11:53:23.349Z,11.58
2018-10-09T11:55:52.279Z,11.42
2018-10-09T11:58:21.369Z,11.31
2018-10-09T12:00:51.911Z,11.01
2018-10-09T12:03:20.936Z,10.92
2018-10-09T12:05:50.002Z,10.39
2018-10-09T12:08:18.933Z,10.61
2018-10-09T12:10:47.945Z,9.76
2018-10-09T12:13:16.885Z,11.03
2018-10-09T12:15:45.782Z,11.51
2018-10-09T12:18:14.776Z,11.42
2018-10-09T12:20:43.722Z,12.21
2018-10-09T12:23:12.663Z,13.84
2018-10-09T12:25:41.583Z,14.00
2018-10-09T12:28:10.485Z,14.11
2018-10-09T12:30:39.405Z,12.93
2018-10-09T12:33:08.359Z,13.60
2018-10-09T12:35:37.247Z,14.81
2018-10-09T12:38:06.312Z,14.50
2018-10-09T12:40:35.190Z,14.22
2018-10-09T12:43:04.180Z,13.54
2018-10-09T12:45:33.049Z,13.41
2018-10-09T12:48:01.996Z,13.75
2018-10-09T12:50:30.883Z,13.96
2018-10-09T12:52:59.758Z,14.55
2018-10-09T12:55:28.668Z,13.89
2018-10-09T12:57:57.667Z,14.46
2018-10-09T13:00:26.587Z,15.42
2018-10-09T13:02:55.514Z,15.17
2018-10-09T13:05:24.464Z,16.67
2018-10-09T13:07:53.466Z,18.48
2018-10-09T13:10:22.471Z,19.00
2018-10-09T13:12:51.403Z,20.61
2018-10-09T13:15:20.447Z,24.09
2018-10-09T13:17:49.492Z,25.03
2018-10-09T13:20:18.504Z,26.41
2018-10-09T13:22:47.535Z,25.02
2018-10-09T13:25:16.873Z,26.82
2018-10-09T13:27:45.729Z,28.29
2018-10-09T13:30:14.704Z,29.26
2018-10-09T13:32:44.091Z,27.79
2018-10-09T13:35:12.967Z,29.05
2018-10-09T13:37:42.297Z,29.41
2018-10-09T13:40:11.536Z,29.89
2018-10-09T13:42:40.339Z,29.70
2018-10-09T13:45:09.333Z,29.98
2018-10-09T13:47:38.360Z,31.79
2018-10-09T13:50:07.464Z,31.80
2018-10-09T13:52:36.452Z,32.01
2018-10-09T13:55:05.480Z,31.79
2018-10-09T13:57:35.045Z,32.67
2018-10-09T14:00:04.251Z,33.08
2018-10-09T14:02:33.643Z,33.03
2018-10-09T14:05:02.669Z,32.27
2018-10-09T14:07:31.992Z,33.64
2018-10-09T14:10:01.439Z,33.70
2018-10-09T14:12:30.444Z,33.81
2018-10-09T14:14:59.896Z,33.89
2018-10-09T14:17:28.938Z,34.19
2018-10-09T14:19:58.028Z,33.82
2018-10-09T14:22:27.252Z,35.86
2018-10-09T14:24:56.419Z,35.65
2018-10-09T14:27:25.759Z,36.66
2018-10-09T14:29:54.730Z,35.19
2018-10-09T14:32:23.651Z,37.13
2018-10-09T14:34:52.715Z,36.57
2018-10-09T14:37:21.940Z,36.44
2018-10-09T14:39:50.841Z,35.68
2018-10-09T14:42:20.491Z,37.57
2018-10-09T14:44:49.482Z,38.45
2018-10-09T14:47:18.459Z,37.18
2018-10-09T14:49:47.576Z,37.56
2018-10-09T14:52:16.457Z,37.55
2018-10-09T14:54:45.495Z,36.91
2018-10-09T14:57:14.491Z,38.47
2018-10-09T14:59:43.477Z,38.77
2018-10-09T15:02:12.480Z,39.38
2018-10-09T15:04:41.424Z,38.27
2018-10-09T15:07:10.514Z,38.94
2018-10-09T15:09:39.487Z,41.56
2018-10-09T15:12:08.499Z,39.17
2018-10-09T15:14:37.593Z,40.11
2018-10-09T15:17:06.704Z,41.68
2018-10-09T15:19:35.780Z,41.33
2018-10-09T15:22:04.723Z,40.25
2018-10-09T15:24:33.656Z,40.51
2018-10-09T15:27:02.596Z,41.04
2018-10-09T15:29:31.603Z,43.01
2018-10-09T15:32:00.640Z,42.52
2018-10-09T15:34:29.526Z,43.18
2018-10-09T15:36:58.553Z,43.24
2018-10-09T15:39:27.448Z,44.36
2018-10-09T15:41:56.501Z,45.10
2018-10-09T15:44:25.452Z,45.88
2018-10-09T15:46:54.371Z,45.45
2018-10-09T15:49:23.363Z,45.74
2018-10-09T15:51:52.276Z,45.46
2018-10-09T15:54:21.155Z,46.28
2018-10-09T15:56:50.139Z,47.13
2018-10-09T15:59:19.195Z,47.36
2018-10-09T16:01:48.185Z,47.24
2018-10-09T16:04:17.227Z,46.90
2018-10-09T16:06:46.228Z,47.59
2018-10-09T16:09:15.215Z,47.55
2018-10-09T16:11:44.108Z,47.42
2018-10-09T16:14:13.081Z,47.62
2018-10-09T16:16:42.079Z,47.47
2018-10-09T16:19:12.029Z,47.46
2018-10-09T16:21:41.334Z,48.13
2018-10-09T16:24:10.596Z,48.67
2018-10-09T16:26:39.595Z,48.23
2018-10-09T16:29:08.483Z,49.12
2018-10-09T16:31:37.464Z,48.83
2018-10-09T16:34:06.500Z,48.81
2018-10-09T16:36:35.380Z,49.70
2018-10-09T16:39:05.856Z,49.27
2018-10-09T16:41:34.871Z,50.04
2018-10-09T16:44:03.931Z,49.45
2018-10-09T16:46:33.340Z,49.90
2018-10-09T16:49:02.290Z,49.44
2018-10-09T16:51:31.554Z,49.97
2018-10-09T16:54:00.650Z,50.58
2018-10-09T16:56:29.663Z,50.53
2018-10-09T16:58:58.532Z,51.09
2018-10-09T17:01:27.471Z,50.68
2018-10-09T17:03:57.009Z,50.92
2018-10-09T17:06:26.008Z,51.21
2018-10-09T17:08:55.010Z,51.15
2018-10-09T17:11:23.971Z,51.19
2018-10-09T17:13:52.948Z,52.31
2018-10-09T17:16:21.808Z,51.83
2018-10-09T17:18:50.769Z,51.75
2018-10-09T17:21:19.855Z,52.22
2018-10-09T17:23:48.862Z,52.75
2018-10-09T17:26:17.819Z,52.83
2018-10-09T17:28:46.848Z,52.82
2018-10-09T17:31:15.775Z,53.41
2018-10-09T17:33:44.747Z,53.08
2018-10-09T17:36:13.620Z,53.04
2018-10-09T17:38:42.711Z,53.24
2018-10-09T17:41:11.702Z,53.36
2018-10-09T17:43:40.594Z,53.84
2018-10-09T17:46:09.659Z,53.55
2018-10-09T17:48:38.609Z,54.10
2018-10-09T17:51:07.570Z,53.91
2018-10-09T17:53:36.552Z,53.53
2018-10-09T17:56:05.863Z,53.71
2018-10-09T17:58:35.111Z,54.14
2018-10-09T18:01:04.068Z,53.75
2018-10-09T18:03:33.097Z,54.42
2018-10-09T18:06:02.035Z,53.88
2018-10-09T18:08:30.987Z,54.67
2018-10-09T18:11:00.063Z,54.96
2018-10-09T18:13:29.114Z,54.73
2018-10-09T18:15:58.068Z,54.78
2018-10-09T18:18:26.994Z,54.44
2018-10-09T18:20:56.912Z,52.91
2018-10-09T18:23:26.007Z,51.96
2018-10-09T18:25:54.944Z,51.13
2018-10-09T18:28:23.900Z,49.61
2018-10-09T18:30:52.877Z,49.96
2018-10-09T18:33:22.093Z,50.33
2018-10-09T18:35:51.542Z,49.52
2018-10-09T18:38:20.527Z,49.72
2018-10-09T18:40:49.740Z,49.06
2018-10-09T18:43:18.564Z,48.92
2018-10-09T18:45:47.487Z,47.64
2018-10-09T18:48:16.333Z,46.60
2018-10-09T18:50:45.323Z,46.87
2018-10-09T18:53:14.419Z,46.83
2018-10-09T18:55:43.484Z,45.30
2018-10-09T18:58:12.404Z,46.42
2018-10-09T19:00:41.331Z,45.52
2018-10-09T19:03:10.207Z,45.99
2018-10-09T19:05:39.159Z,45.44
2018-10-09T19:08:08.195Z,44.95
2018-10-09T19:10:37.221Z,44.69
2018-10-09T19:13:06.179Z,44.45
2018-10-09T19:15:35.193Z,45.22
2018-10-09T19:18:04.195Z,44.49
2018-10-09T19:20:33.224Z,45.04
2018-10-09T19:23:02.224Z,44.57
2018-10-09T19:25:31.088Z,45.05
2018-10-09T19:28:00.106Z,44.47
2018-10-09T19:33:12.687Z,45.80
2018-10-09T19:35:41.579Z,45.06
2018-10-09T19:38:10.583Z,45.18
2018-10-09T19:40:39.626Z,45.99
2018-10-09T19:43:08.513Z,44.90
2018-10-09T19:45:37.506Z,45.00
2018-10-09T19:48:06.492Z,44.74
2018-10-09T19:50:35.449Z,47.04
2018-10-09T19:53:04.495Z,47.80
2018-10-09T19:55:33.507Z,47.62
2018-10-09T19:58:02.372Z,48.15
2018-10-09T20:00:31.268Z,49.86
2018-10-09T20:03:00.144Z,49.81
2018-10-09T20:05:29.195Z,48.11
2018-10-09T20:07:58.119Z,47.49
2018-10-09T20:10:26.995Z,47.85
2018-10-09T20:12:55.971Z,48.38
2018-10-09T20:15:24.876Z,48.31
2018-10-09T20:17:53.920Z,49.50
2018-10-09T20:20:23.061Z,49.11
2018-10-09T20:22:52.128Z,48.83
2018-10-09T20:25:21.071Z,49.50
2018-10-09T20:27:50.050Z,50.36
2018-10-09T20:30:18.935Z,50.64
2018-10-09T20:32:47.791Z,51.30
2018-10-09T20:35:16.767Z,50.92
2018-10-09T20:37:45.717Z,51.51
2018-10-09T20:40:14.631Z,52.55
2018-10-09T20:42:43.484Z,53.02
2018-10-09T20:45:12.580Z,52.78
2018-10-09T20:47:43.458Z,51.78
2018-10-09T20:50:13.226Z,52.89
2018-10-09T20:52:42.216Z,52.75
2018-10-09T20:55:11.264Z,53.53
2018-10-09T20:57:40.189Z,54.90
2018-10-09T21:00:09.412Z,54.63
2018-10-09T21:02:38.490Z,56.08
2018-10-09T21:05:07.845Z,56.07
2018-10-09T21:07:37.191Z,57.68
2018-10-09T21:10:06.491Z,56.56
2018-10-09T21:12:35.827Z,57.00
2018-10-09T21:15:05.551Z,57.83
2018-10-09T21:17:34.706Z,57.57
2018-10-09T21:20:04.044Z,57.91
2018-10-09T21:22:33.278Z,58.23
2018-10-09T21:25:02.444Z,58.13
2018-10-09T21:27:31.744Z,57.22
2018-10-09T21:30:01.064Z,57.16
2018-10-09T21:32:30.188Z,57.79
2018-10-09T21:34:59.211Z,56.45
2018-10-09T21:37:28.428Z,56.76
2018-10-09T21:39:57.620Z,56.70
2018-10-09T21:42:26.427Z,56.61
2018-10-09T21:44:55.494Z,57.16
2018-10-09T21:47:24.330Z,57.75
2018-10-09T21:49:53.483Z,56.86
2018-10-09T21:52:22.426Z,58.69
2018-10-09T21:54:51.279Z,57.90
2018-10-09T21:57:20.452Z,56.39
2018-10-09T21:59:49.590Z,56.43
2018-10-09T22:02:18.395Z,56.76
2018-10-09T22:04:47.253Z,58.02
2018-10-09T22:07:17.710Z,56.79
2018-10-09T22:09:47.202Z,57.18
2018-10-09T22:12:16.025Z,58.05
2018-10-09T22:14:45.155Z,58.28
2018-10-09T22:17:14.311Z,58.03
2018-10-09T22:19:43.468Z,57.93
2018-10-09T22:22:12.438Z,58.36
2018-10-09T22:24:41.625Z,58.94
2018-10-09T22:27:10.555Z,59.30
2018-10-09T22:29:39.711Z,60.26
2018-10-09T22:32:08.715Z,59.50
2018-10-09T22:34:37.871Z,59.84
2018-10-09T22:37:07.096Z,60.88
2018-10-09T22:39:36.339Z,59.69
2018-10-09T22:42:05.160Z,59.77
2018-10-09T22:44:34.408Z,60.42
2018-10-09T22:47:03.673Z,61.02
2018-10-09T22:49:32.917Z,60.88
2018-10-09T22:52:02.022Z,61.05
2018-10-09T22:54:31.428Z,61.81
2018-10-09T22:57:00.823Z,61.59
2018-10-09T22:59:29.780Z,62.79
2018-10-09T23:01:59.221Z,61.81
2018-10-09T23:04:28.408Z,61.27
2018-10-09T23:06:57.807Z,63.03
2018-10-09T23:09:27.021Z,62.19
2018-10-09T23:11:56.311Z,63.44
2018-10-09T23:14:25.564Z,62.97
2018-10-09T23:16:54.826Z,64.19
2018-10-09T23:19:24.263Z,62.86
2018-10-09T23:21:53.687Z,63.29
2018-10-09T23:24:22.859Z,63.47
2018-10-09T23:26:52.108Z,64.24
2018-10-09T23:29:21.568Z,63.28
2018-10-09T23:31:50.751Z,63.37
2018-10-09T23:34:20.095Z,64.05
2018-10-09T23:36:49.359Z,64.73
2018-10-09T23:39:18.714Z,65.33
2018-10-09T23:41:47.615Z,64.12
2018-10-09T23:44:16.642Z,64.24
2018-10-09T23:46:45.728Z,63.92
2018-10-09T23:49:14.872Z,63.94
2018-10-09T23:51:44.068Z,63.94
2018-10-09T23:54:13.427Z,64.79
2018-10-09T23:56:42.645Z,64.54
2018-10-09T23:59:11.910Z,65.02
